createdAt,value
2019-04-30T00:00:10.100Z,7.87
2019-04-30T00:02:39.987Z,7.89
2019-04-30T00:05:10.057Z,8.02
2019-04-30T00:07:35.740Z,8.03
2019-04-30T00:10:06.124Z,7.91
2019-04-30T00:12:37.972Z,7.92
2019-04-30T00:15:00.546Z,7.79
2019-04-30T00:17:28.472Z,7.73
2019-04-30T00:19:58.740Z,7.68
2019-04-30T00:22:33.244Z,7.80
2019-04-30T00:24:50.337Z,7.88
2019-04-30T00:27:16.528Z,7.95
2019-04-30T00:29:42.592Z,8.06
2019-04-30T00:32:08.676Z,8.13
2019-04-30T00:34:35.876Z,8.17
2019-04-30T00:37:07.283Z,8.20
2019-04-30T00:39:30.824Z,8.25
2019-04-30T00:41:56.887Z,8.21
2019-04-30T00:44:24.907Z,8.25
2019-04-30T00:46:50.866Z,8.30
2019-04-30T00:49:22.913Z,8.17
2019-04-30T00:51:45.380Z,8.18
2019-04-30T00:54:11.659Z,8.12
2019-04-30T00:56:37.651Z,8.10
2019-04-30T00:59:07.048Z,8.01
2019-04-30T01:01:32.610Z,7.96
2019-04-30T01:03:58.836Z,7.92
2019-04-30T01:06:28.665Z,7.90
2019-04-30T01:08:53.237Z,7.90
2019-04-30T01:11:19.208Z,7.88
2019-04-30T01:13:50.181Z,7.85
2019-04-30T01:16:13.456Z,7.78
2019-04-30T01:18:39.478Z,7.75
2019-04-30T01:21:07.911Z,7.74
2019-04-30T01:23:33.942Z,7.70
2019-04-30T01:26:00.275Z,7.68
2019-04-30T01:28:28.413Z,7.70
2019-04-30T01:31:00.319Z,7.72
2019-04-30T01:33:28.384Z,7.67
2019-04-30T01:35:53.005Z,7.60
2019-04-30T01:38:19.041Z,7.55
2019-04-30T01:40:47.533Z,7.47
2019-04-30T01:43:14.090Z,7.38
2019-04-30T01:45:40.081Z,7.27
2019-04-30T01:48:12.134Z,7.23
2019-04-30T01:50:38.783Z,7.16
2019-04-30T01:53:08.864Z,7.08
2019-04-30T01:55:33.060Z,7.03
2019-04-30T01:57:59.382Z,7.00
2019-04-30T02:00:26.640Z,6.97
2019-04-30T02:02:52.766Z,6.96
2019-04-30T02:05:18.949Z,6.95
2019-04-30T02:07:46.068Z,6.93
2019-04-30T02:10:12.507Z,6.89
2019-04-30T02:12:39.270Z,6.86
2019-04-30T02:15:05.748Z,6.80
2019-04-30T02:17:31.974Z,6.73
2019-04-30T02:19:59.330Z,6.71
2019-04-30T02:22:25.544Z,6.70
2019-04-30T02:24:51.578Z,6.69
2019-04-30T02:27:19.165Z,6.64
2019-04-30T02:29:45.878Z,6.49
2019-04-30T02:32:11.901Z,6.28
2019-04-30T02:34:42.215Z,6.19
2019-04-30T02:37:05.890Z,6.15
2019-04-30T02:39:31.912Z,6.17
2019-04-30T02:41:59.928Z,6.16
2019-04-30T02:44:29.336Z,6.12
2019-04-30T02:47:00.201Z,6.03
2019-04-30T02:49:30.259Z,5.86
2019-04-30T02:51:59.524Z,5.84
2019-04-30T02:54:29.620Z,5.75
2019-04-30T02:56:56.093Z,5.73
2019-04-30T02:59:22.313Z,5.73
2019-04-30T03:01:50.199Z,5.71
2019-04-30T03:04:16.539Z,5.81
2019-04-30T03:06:42.546Z,5.74
2019-04-30T03:09:10.335Z,5.72
2019-04-30T03:11:36.624Z,5.61
2019-04-30T03:14:03.572Z,5.61
2019-04-30T03:16:30.331Z,5.65
2019-04-30T03:18:56.435Z,5.71
2019-04-30T03:21:22.456Z,5.71
2019-04-30T03:23:50.354Z,5.56
2019-04-30T03:26:16.379Z,5.57
2019-04-30T03:28:43.407Z,5.54
2019-04-30T03:31:12.491Z,5.47
2019-04-30T03:33:41.920Z,5.32
2019-04-30T03:36:05.865Z,5.30
2019-04-30T03:38:32.146Z,5.28
2019-04-30T03:41:00.150Z,5.21
2019-04-30T03:43:26.179Z,5.19
2019-04-30T03:45:52.526Z,5.21
2019-04-30T03:48:20.175Z,5.21
2019-04-30T03:50:53.320Z,5.26
2019-04-30T03:53:14.478Z,5.32
2019-04-30T03:55:41.723Z,5.34
2019-04-30T03:58:09.232Z,5.33
2019-04-30T04:00:35.611Z,5.33
2019-04-30T04:03:01.823Z,5.30
2019-04-30T04:05:29.895Z,5.34
2019-04-30T04:07:55.828Z,5.33
2019-04-30T04:10:22.169Z,5.33
2019-04-30T04:12:49.890Z,5.37
2019-04-30T04:15:16.084Z,5.58
2019-04-30T04:17:42.045Z,5.89
2019-04-30T04:20:10.608Z,6.26
2019-04-30T04:22:36.783Z,6.64
2019-04-30T04:25:05.054Z,6.98
2019-04-30T04:27:31.073Z,7.00
2019-04-30T04:30:00.734Z,7.10
2019-04-30T04:32:25.270Z,7.52
2019-04-30T04:34:51.295Z,7.97
2019-04-30T04:37:19.841Z,8.37
2019-04-30T04:39:45.227Z,9.09
2019-04-30T04:42:11.360Z,9.65
2019-04-30T04:44:39.908Z,9.86
2019-04-30T04:47:05.321Z,10.42
2019-04-30T04:49:32.447Z,10.56
2019-04-30T04:51:59.595Z,10.80
2019-04-30T04:54:25.724Z,10.92
2019-04-30T04:56:54.768Z,11.02
2019-04-30T04:59:20.084Z,11.32
2019-04-30T05:01:48.815Z,11.58
2019-04-30T05:04:14.321Z,12.29
2019-04-30T05:06:40.549Z,12.58
2019-04-30T05:09:06.979Z,12.52
2019-04-30T05:11:33.099Z,12.68
2019-04-30T05:13:59.072Z,13.00
2019-04-30T05:16:25.145Z,13.14
2019-04-30T05:18:51.215Z,13.51
2019-04-30T05:21:18.821Z,13.60
2019-04-30T05:23:45.033Z,13.30
2019-04-30T05:26:11.295Z,13.10
2019-04-30T05:28:37.239Z,12.64
2019-04-30T05:31:03.255Z,12.30
2019-04-30T05:33:29.362Z,11.79
2019-04-30T05:35:55.474Z,10.55
2019-04-30T05:38:22.730Z,10.69
2019-04-30T05:40:49.549Z,11.07
2019-04-30T05:43:15.879Z,11.16
2019-04-30T05:45:42.391Z,11.38
2019-04-30T05:48:08.843Z,12.18
2019-04-30T05:50:35.197Z,12.89
2019-04-30T05:53:01.321Z,13.53
2019-04-30T05:55:29.330Z,13.96
2019-04-30T05:57:56.505Z,14.78
2019-04-30T06:00:22.975Z,14.63
2019-04-30T06:02:49.831Z,15.14
2019-04-30T06:05:16.181Z,15.76
2019-04-30T06:07:42.476Z,15.91
2019-04-30T06:10:09.264Z,15.64
2019-04-30T06:12:35.852Z,15.64
2019-04-30T06:15:03.721Z,15.18
2019-04-30T06:17:29.971Z,15.49
2019-04-30T06:19:56.170Z,16.44
2019-04-30T06:22:23.219Z,16.33
2019-04-30T06:24:49.561Z,16.86
2019-04-30T06:27:16.195Z,16.90
2019-04-30T06:29:42.309Z,16.49
2019-04-30T06:32:08.845Z,17.02
2019-04-30T06:34:35.583Z,15.12
2019-04-30T06:37:01.711Z,15.10
2019-04-30T06:39:28.815Z,14.94
2019-04-30T06:42:04.919Z,16.04
2019-04-30T06:44:34.887Z,16.31
2019-04-30T06:46:52.670Z,16.29
2019-04-30T06:49:19.837Z,17.19
2019-04-30T06:51:46.034Z,16.40
2019-04-30T06:54:12.058Z,17.18
2019-04-30T06:56:38.706Z,17.07
2019-04-30T06:59:04.924Z,16.31
2019-04-30T07:01:31.250Z,15.86
2019-04-30T07:04:00.794Z,15.24
2019-04-30T07:06:29.659Z,14.29
2019-04-30T07:08:55.820Z,13.66
2019-04-30T07:11:21.691Z,13.59
2019-04-30T07:13:51.766Z,14.04
2019-04-30T07:16:16.002Z,14.25
2019-04-30T07:18:42.217Z,14.84
2019-04-30T07:21:08.782Z,14.42
2019-04-30T07:23:35.027Z,14.37
2019-04-30T07:26:01.103Z,13.68
2019-04-30T07:28:41.268Z,14.04
2019-04-30T07:31:10.624Z,12.68
2019-04-30T07:33:23.065Z,12.45
2019-04-30T07:35:49.841Z,12.17
2019-04-30T07:38:16.007Z,12.61
2019-04-30T07:40:41.960Z,13.29
2019-04-30T07:43:09.068Z,13.76
2019-04-30T07:45:35.429Z,13.63
2019-04-30T07:48:01.456Z,14.19
2019-04-30T07:50:30.598Z,14.52
2019-04-30T07:53:04.792Z,13.97
2019-04-30T07:55:23.412Z,13.40
2019-04-30T07:57:50.583Z,13.41
2019-04-30T08:00:16.801Z,12.97
2019-04-30T08:02:43.728Z,12.80
2019-04-30T08:05:10.645Z,12.85
2019-04-30T08:07:38.887Z,13.20
2019-04-30T08:10:08.787Z,12.94
2019-04-30T08:12:37.470Z,12.75
2019-04-30T08:15:05.518Z,12.95
2019-04-30T08:17:31.564Z,12.95
2019-04-30T08:19:58.775Z,12.80
2019-04-30T08:22:25.026Z,12.61
2019-04-30T08:24:51.042Z,12.84
2019-04-30T08:27:19.162Z,13.08
2019-04-30T08:29:45.340Z,13.44
2019-04-30T08:32:11.362Z,13.34
2019-04-30T08:34:39.380Z,13.96
2019-04-30T08:37:16.740Z,13.64
2019-04-30T08:39:33.339Z,13.63
2019-04-30T08:41:59.993Z,13.28
2019-04-30T08:44:27.119Z,13.47
2019-04-30T08:46:53.251Z,13.88
2019-04-30T08:49:20.770Z,13.68
2019-04-30T08:51:49.206Z,13.18
2019-04-30T08:54:15.292Z,12.87
2019-04-30T08:56:41.318Z,13.38
2019-04-30T08:59:08.750Z,13.58
2019-04-30T09:01:35.311Z,13.26
2019-04-30T09:04:01.436Z,13.02
2019-04-30T09:06:29.125Z,13.60
2019-04-30T09:08:55.631Z,13.49
2019-04-30T09:11:29.386Z,13.36
2019-04-30T09:13:49.721Z,13.52
2019-04-30T09:16:15.744Z,14.01
2019-04-30T09:18:43.817Z,14.02
2019-04-30T09:21:09.969Z,14.44
2019-04-30T09:23:47.497Z,14.37
2019-04-30T09:26:04.034Z,14.46
2019-04-30T09:28:30.057Z,13.62
2019-04-30T09:30:56.181Z,13.88
2019-04-30T09:33:22.214Z,13.88
2019-04-30T09:35:49.522Z,14.03
2019-04-30T09:38:15.793Z,14.10
2019-04-30T09:40:41.875Z,14.30
2019-04-30T09:43:08.650Z,14.17
2019-04-30T09:45:35.186Z,14.15
2019-04-30T09:48:01.717Z,14.13
2019-04-30T09:50:28.973Z,14.57
2019-04-30T09:52:55.607Z,14.73
2019-04-30T09:55:21.628Z,15.15
2019-04-30T09:57:48.827Z,14.84
2019-04-30T10:00:16.750Z,14.88
2019-04-30T10:02:42.944Z,14.43
2019-04-30T10:05:09.787Z,14.63
2019-04-30T10:07:36.508Z,14.43
2019-04-30T10:10:05.182Z,15.12
2019-04-30T10:12:31.265Z,15.06
2019-04-30T10:14:59.139Z,15.10
2019-04-30T10:17:25.260Z,15.68
2019-04-30T10:19:51.379Z,15.31
2019-04-30T10:22:17.605Z,15.43
2019-04-30T10:24:43.731Z,15.49
2019-04-30T10:27:13.042Z,15.89
2019-04-30T10:29:39.530Z,15.86
2019-04-30T10:32:05.803Z,15.93
2019-04-30T10:34:31.860Z,16.41
2019-04-30T10:36:59.606Z,16.07
2019-04-30T10:39:26.431Z,15.88
2019-04-30T10:41:52.549Z,15.66
2019-04-30T10:44:18.850Z,15.48
2019-04-30T10:46:45.413Z,15.73
2019-04-30T10:49:11.537Z,15.94
2019-04-30T10:51:38.798Z,15.86
2019-04-30T10:54:05.534Z,15.95
2019-04-30T10:56:31.740Z,16.37
2019-04-30T10:58:57.776Z,16.65
2019-04-30T11:01:23.907Z,16.70
2019-04-30T11:03:50.026Z,17.16
2019-04-30T11:06:16.466Z,17.10
2019-04-30T11:08:42.622Z,17.44
2019-04-30T11:11:09.016Z,17.82
2019-04-30T11:13:35.974Z,18.38
2019-04-30T11:16:12.134Z,18.14
2019-04-30T11:18:30.109Z,17.57
2019-04-30T11:20:56.912Z,17.15
2019-04-30T11:23:23.374Z,16.76
2019-04-30T11:25:51.608Z,16.61
2019-04-30T11:28:18.637Z,16.37
2019-04-30T11:30:45.259Z,16.39
2019-04-30T11:33:12.015Z,16.40
2019-04-30T11:35:39.443Z,16.76
2019-04-30T11:38:05.669Z,16.86
2019-04-30T11:40:36.838Z,17.10
2019-04-30T11:43:00.169Z,17.95
2019-04-30T11:45:48.053Z,18.45
2019-04-30T11:48:14.172Z,17.91
2019-04-30T11:50:41.649Z,17.09
2019-04-30T11:53:24.106Z,16.72
2019-04-30T11:55:35.552Z,17.14
2019-04-30T11:58:01.545Z,17.35
2019-04-30T12:00:29.538Z,17.19
2019-04-30T12:02:55.642Z,17.31
2019-04-30T12:05:21.859Z,17.10
2019-04-30T12:07:48.336Z,17.53
2019-04-30T12:10:16.111Z,17.13
2019-04-30T12:12:42.101Z,16.83
2019-04-30T12:15:09.315Z,16.87
2019-04-30T12:17:35.497Z,17.50
2019-04-30T12:20:03.323Z,17.75
2019-04-30T12:22:29.657Z,17.91
2019-04-30T12:25:02.541Z,17.73
2019-04-30T12:27:23.746Z,17.38
2019-04-30T12:29:49.871Z,17.05
2019-04-30T12:32:15.937Z,17.05
2019-04-30T12:34:42.028Z,16.93
2019-04-30T12:37:10.748Z,16.66
2019-04-30T12:39:36.929Z,16.84
2019-04-30T12:42:03.086Z,17.16
2019-04-30T12:44:29.150Z,17.03
2019-04-30T12:46:55.202Z,17.18
2019-04-30T12:49:21.328Z,17.17
2019-04-30T12:51:48.827Z,17.30
2019-04-30T12:54:15.423Z,17.21
2019-04-30T12:56:41.652Z,17.49
2019-04-30T12:59:07.983Z,17.61
2019-04-30T13:01:34.322Z,17.70
2019-04-30T13:04:01.462Z,17.72
2019-04-30T13:06:28.441Z,17.77
2019-04-30T13:08:55.982Z,17.89
2019-04-30T13:11:23.032Z,18.00
2019-04-30T13:13:50.565Z,17.97
2019-04-30T13:16:17.171Z,17.66
2019-04-30T13:18:45.173Z,17.41
2019-04-30T13:21:11.297Z,17.32
2019-04-30T13:23:37.319Z,17.79
2019-04-30T13:26:03.565Z,17.69
2019-04-30T13:28:29.648Z,17.35
2019-04-30T13:30:56.818Z,17.42
2019-04-30T13:33:22.944Z,17.56
2019-04-30T13:35:49.096Z,17.20
2019-04-30T13:38:15.093Z,16.92
2019-04-30T13:40:41.114Z,17.17
2019-04-30T13:43:07.143Z,17.49
2019-04-30T13:45:33.392Z,17.83
2019-04-30T13:47:59.392Z,17.44
2019-04-30T13:50:25.468Z,17.40
2019-04-30T13:52:51.535Z,17.70
2019-04-30T13:55:19.206Z,17.38
2019-04-30T13:57:45.358Z,17.11
2019-04-30T14:00:12.226Z,17.32
2019-04-30T14:02:38.597Z,17.40
2019-04-30T14:05:04.824Z,17.63
2019-04-30T14:07:30.950Z,17.52
2019-04-30T14:09:56.921Z,17.59
2019-04-30T14:12:23.202Z,17.61
2019-04-30T14:14:49.427Z,17.42
2019-04-30T14:17:15.758Z,17.32
2019-04-30T14:19:41.780Z,17.69
2019-04-30T14:22:08.993Z,18.27
2019-04-30T14:24:35.362Z,18.57
2019-04-30T14:27:02.743Z,18.86
2019-04-30T14:29:30.165Z,19.05
2019-04-30T14:31:56.398Z,18.60
2019-04-30T14:34:22.524Z,18.74
2019-04-30T14:36:49.322Z,18.79
2019-04-30T14:39:17.138Z,18.95
2019-04-30T14:41:44.356Z,19.27
2019-04-30T14:44:11.572Z,19.53
2019-04-30T14:46:39.686Z,19.17
2019-04-30T14:49:07.024Z,19.32
2019-04-30T14:51:34.216Z,19.11
2019-04-30T14:54:00.356Z,18.81
2019-04-30T14:56:26.561Z,18.70
2019-04-30T14:58:52.683Z,18.30
2019-04-30T15:01:19.368Z,17.94
2019-04-30T15:03:45.754Z,17.83
2019-04-30T15:06:11.951Z,17.90
2019-04-30T15:08:39.429Z,18.40
2019-04-30T15:11:08.935Z,18.72
2019-04-30T15:13:34.704Z,18.84
2019-04-30T15:16:00.667Z,18.79
2019-04-30T15:18:28.888Z,18.72
2019-04-30T15:20:54.978Z,18.28
2019-04-30T15:23:21.847Z,18.17
2019-04-30T15:25:48.664Z,18.49
2019-04-30T15:28:14.922Z,18.51
2019-04-30T15:30:42.100Z,18.53
2019-04-30T15:33:09.357Z,18.92
2019-04-30T15:35:35.471Z,19.13
2019-04-30T15:38:01.641Z,19.21
2019-04-30T15:40:28.862Z,19.44
2019-04-30T15:42:55.641Z,19.27
2019-04-30T15:45:21.768Z,19.41
2019-04-30T15:47:48.600Z,19.53
2019-04-30T15:50:15.121Z,19.50
2019-04-30T15:52:41.378Z,19.28
2019-04-30T15:55:09.165Z,18.68
2019-04-30T15:57:35.620Z,19.35
2019-04-30T16:00:06.533Z,19.03
2019-04-30T16:02:32.929Z,18.90
2019-04-30T16:04:59.903Z,19.04
2019-04-30T16:07:26.103Z,19.07
2019-04-30T16:09:52.230Z,19.01
2019-04-30T16:12:20.134Z,18.98
2019-04-30T16:14:46.221Z,19.27
2019-04-30T16:17:12.299Z,19.16
2019-04-30T16:19:38.428Z,19.15
2019-04-30T16:22:04.903Z,19.07
2019-04-30T16:24:31.024Z,18.72
2019-04-30T16:26:59.186Z,18.60
2019-04-30T16:29:25.323Z,18.51
2019-04-30T16:31:51.661Z,18.54
2019-04-30T16:34:17.882Z,18.26
2019-04-30T16:36:44.107Z,18.24
2019-04-30T16:39:11.463Z,17.97
2019-04-30T16:41:40.558Z,17.79
2019-04-30T16:44:05.765Z,17.87
2019-04-30T16:46:31.885Z,17.98
2019-04-30T16:48:58.786Z,18.17
2019-04-30T16:51:24.924Z,18.25
2019-04-30T16:53:51.080Z,17.17
2019-04-30T16:56:18.611Z,18.18
2019-04-30T16:58:44.867Z,18.20
2019-04-30T17:01:10.991Z,17.94
2019-04-30T17:03:38.797Z,18.20
2019-04-30T17:06:05.187Z,18.25
2019-04-30T17:08:31.417Z,18.10
2019-04-30T17:10:57.453Z,18.22
2019-04-30T17:13:23.463Z,18.19
2019-04-30T17:15:49.689Z,18.39
2019-04-30T17:18:15.712Z,18.13
2019-04-30T17:20:41.689Z,17.90
2019-04-30T17:23:09.452Z,17.78
2019-04-30T17:25:35.841Z,17.78
2019-04-30T17:28:02.164Z,17.70
2019-04-30T17:30:29.390Z,17.57
2019-04-30T17:32:55.841Z,17.09
2019-04-30T17:35:21.969Z,17.18
2019-04-30T17:37:48.093Z,17.14
2019-04-30T17:40:14.625Z,17.28
2019-04-30T17:42:41.758Z,17.33
2019-04-30T17:45:09.477Z,17.27
2019-04-30T17:47:35.970Z,17.30
2019-04-30T17:50:04.355Z,17.26
2019-04-30T17:52:30.581Z,17.07
2019-04-30T17:54:59.523Z,16.90
2019-04-30T17:57:32.353Z,16.76
2019-04-30T17:59:53.972Z,16.70
2019-04-30T18:02:20.094Z,16.64
2019-04-30T18:04:46.119Z,16.50
2019-04-30T18:07:12.347Z,16.41
2019-04-30T18:09:38.970Z,16.36
2019-04-30T18:12:05.339Z,16.12
2019-04-30T18:14:32.460Z,16.18
2019-04-30T18:16:59.446Z,16.10
2019-04-30T18:19:25.837Z,15.88
2019-04-30T18:21:51.964Z,15.95
2019-04-30T18:24:19.501Z,15.83
2019-04-30T18:26:45.649Z,15.54
2019-04-30T18:29:11.775Z,15.40
2019-04-30T18:31:37.845Z,15.44
2019-04-30T18:34:03.920Z,15.23
2019-04-30T18:36:30.152Z,15.08
2019-04-30T18:38:56.271Z,15.01
2019-04-30T18:41:22.241Z,15.00
2019-04-30T18:43:48.770Z,14.84
2019-04-30T18:46:14.852Z,14.74
2019-04-30T18:48:41.083Z,14.59
2019-04-30T18:51:23.538Z,14.49
2019-04-30T18:53:35.483Z,14.40
2019-04-30T18:56:01.605Z,14.23
2019-04-30T18:58:39.190Z,14.03
2019-04-30T19:00:56.319Z,14.03
2019-04-30T19:03:22.724Z,13.96
2019-04-30T19:05:49.246Z,13.99
2019-04-30T19:08:15.563Z,14.09
2019-04-30T19:10:41.859Z,14.11
2019-04-30T19:13:08.943Z,13.99
2019-04-30T19:15:48.726Z,13.81
2019-04-30T19:18:03.335Z,13.69
2019-04-30T19:20:29.419Z,13.55
2019-04-30T19:22:55.641Z,13.45
2019-04-30T19:25:21.972Z,13.33
2019-04-30T19:27:48.094Z,13.24
2019-04-30T19:30:14.527Z,13.14
2019-04-30T19:32:40.658Z,13.09
2019-04-30T19:35:09.029Z,12.98
2019-04-30T19:37:35.259Z,12.77
2019-04-30T19:40:01.996Z,12.69
2019-04-30T19:42:29.522Z,12.55
2019-04-30T19:45:00.746Z,12.45
2019-04-30T19:47:23.965Z,12.47
2019-04-30T19:49:49.978Z,12.32
2019-04-30T19:52:16.347Z,12.33
2019-04-30T19:54:42.535Z,12.22
2019-04-30T19:57:10.264Z,12.21
2019-04-30T19:59:36.423Z,12.24
2019-04-30T20:02:02.857Z,12.27
2019-04-30T20:04:35.668Z,12.26
2019-04-30T20:06:56.744Z,12.23
2019-04-30T20:09:23.077Z,12.19
2019-04-30T20:11:49.418Z,12.14
2019-04-30T20:14:15.632Z,12.01
2019-04-30T20:16:41.655Z,11.94
2019-04-30T20:19:09.190Z,11.86
2019-04-30T20:21:45.825Z,11.92
2019-04-30T20:24:03.414Z,11.95
2019-04-30T20:26:29.437Z,11.94
2019-04-30T20:28:56.582Z,11.99
2019-04-30T20:31:22.605Z,11.94
2019-04-30T20:33:49.055Z,11.96
2019-04-30T20:36:16.291Z,11.97
2019-04-30T20:38:42.314Z,11.97
2019-04-30T20:41:09.210Z,11.94
2019-04-30T20:43:35.584Z,11.91
2019-04-30T20:46:01.941Z,11.82
2019-04-30T20:48:29.850Z,11.92
2019-04-30T20:50:56.006Z,11.95
2019-04-30T20:53:22.137Z,12.09
2019-04-30T20:55:49.539Z,12.07
2019-04-30T20:58:16.027Z,12.02
2019-04-30T21:00:42.763Z,12.06
2019-04-30T21:03:09.707Z,12.07
2019-04-30T21:05:36.153Z,12.02
2019-04-30T21:08:02.501Z,11.89
2019-04-30T21:10:29.693Z,12.03
2019-04-30T21:12:56.040Z,12.16
2019-04-30T21:15:22.071Z,12.24
2019-04-30T21:17:48.442Z,12.24
2019-04-30T21:20:16.075Z,12.25
2019-04-30T21:22:42.236Z,12.15
2019-04-30T21:25:09.921Z,12.12
2019-04-30T21:27:36.998Z,12.13
2019-04-30T21:30:06.766Z,12.04
2019-04-30T21:32:32.858Z,12.00
2019-04-30T21:34:58.856Z,11.95
2019-04-30T21:37:24.996Z,11.91
2019-04-30T21:39:51.007Z,11.85
2019-04-30T21:42:17.131Z,11.90
2019-04-30T21:44:43.286Z,11.92
2019-04-30T21:47:09.379Z,11.95
2019-04-30T21:49:36.616Z,11.94
2019-04-30T21:52:03.164Z,12.00
2019-04-30T21:54:30.487Z,11.97
2019-04-30T21:56:56.971Z,11.97
2019-04-30T21:59:24.511Z,11.95
2019-04-30T22:01:51.151Z,11.88
2019-04-30T22:04:17.272Z,11.83
2019-04-30T22:06:43.302Z,11.79
2019-04-30T22:09:09.801Z,11.65
2019-04-30T22:11:39.443Z,11.58
2019-04-30T22:14:05.559Z,11.56
2019-04-30T22:16:31.554Z,11.49
2019-04-30T22:18:57.705Z,11.52
2019-04-30T22:21:23.701Z,11.49
2019-04-30T22:23:49.753Z,11.43
2019-04-30T22:26:15.903Z,11.47
2019-04-30T22:28:42.003Z,11.48
2019-04-30T22:31:08.680Z,11.45
2019-04-30T22:33:34.870Z,11.44
2019-04-30T22:36:00.969Z,11.36
2019-04-30T22:38:28.956Z,11.37
2019-04-30T22:40:54.952Z,11.30
2019-04-30T22:43:21.007Z,11.24
2019-04-30T22:45:47.249Z,11.20
2019-04-30T22:48:13.461Z,11.03
2019-04-30T22:50:39.692Z,11.00
2019-04-30T22:53:05.943Z,10.97
2019-04-30T22:55:32.249Z,10.88
2019-04-30T22:57:58.477Z,10.82
2019-04-30T23:00:25.122Z,10.77
2019-04-30T23:02:51.247Z,10.76
2019-04-30T23:05:17.568Z,10.80
2019-04-30T23:07:43.788Z,10.69
2019-04-30T23:10:10.152Z,10.60
2019-04-30T23:12:36.350Z,10.57
2019-04-30T23:15:04.608Z,10.52
2019-04-30T23:17:31.906Z,10.55
2019-04-30T23:19:57.885Z,10.54
2019-04-30T23:22:23.891Z,10.53
2019-04-30T23:24:49.944Z,10.58
2019-04-30T23:27:16.071Z,10.62
2019-04-30T23:29:42.095Z,10.51
2019-04-30T23:32:08.324Z,10.48
2019-04-30T23:34:34.661Z,10.43
2019-04-30T23:37:01.870Z,10.37
2019-04-30T23:39:29.197Z,10.38
2019-04-30T23:41:55.169Z,10.38
2019-04-30T23:44:21.165Z,10.33
2019-04-30T23:46:47.123Z,10.28
2019-04-30T23:49:13.119Z,10.16
2019-04-30T23:51:39.479Z,10.16
2019-04-30T23:54:05.653Z,10.09
2019-04-30T23:56:31.705Z,10.11
2019-04-30T23:58:57.661Z,10.09
